Time;durP1;ratioP1;P1;durP2;ratioP2;P2;SDS_P1;SDS_P2;PMS_P1;PMS_P2;Temp;Humidity;BMP_temperature;BMP_pressure;BME280_temperature;BME280_humidity;BME280_pressure;Samples;Min_cycle;Max_cycle;Signal;HPM_P1;HPM_P2
2023/07/10 00:00:34;;;;;;;10.80;4.10;;;26.90;99.90;;;;;;1916894;73;21109;-74
2023/07/10 00:03:28;;;;;;;10.40;3.90;;;27.00;99.90;;;;;;1931735;73;21098;-74
2023/07/10 00:06:19;;;;;;;7.37;3.90;;;27.00;99.90;;;;;;1920973;73;21146;-74
2023/07/10 00:09:10;;;;;;;10.58;4.53;;;26.90;99.90;;;;;;1920311;73;21114;-74
2023/07/10 00:14:39;;;;;;;7.42;4.20;;;26.80;99.90;;;;;;1932829;72;22464;-75
2023/07/10 00:17:30;;;;;;;6.80;4.10;;;26.60;99.90;;;;;;1900834;74;21245;-75
2023/07/10 00:20:24;;;;;;;8.58;4.22;;;26.40;99.90;;;;;;1905132;75;21102;-74
2023/07/10 00:23:16;;;;;;;7.85;4.20;;;26.50;99.90;;;;;;1910014;75;21094;-74
2023/07/10 00:28:55;;;;;;;8.80;4.45;;;26.50;99.90;;;;;;1948402;72;22195;-74
2023/07/10 00:31:47;;;;;;;6.90;4.50;;;26.50;99.90;;;;;;1917486;73;21083;-74
2023/07/10 00:34:38;;;;;;;7.35;4.35;;;26.50;99.90;;;;;;1932460;73;21105;-74
2023/07/10 00:37:29;;;;;;;7.35;4.42;;;26.60;99.90;;;;;;1917949;73;21046;-74
2023/07/10 00:40:23;;;;;;;6.50;4.17;;;26.60;99.90;;;;;;1916816;75;21080;-74
2023/07/10 00:43:27;;;;;;;7.95;4.40;;;26.50;99.90;;;;;;1921523;73;21279;-74
2023/07/10 00:46:21;;;;;;;8.05;4.42;;;26.50;99.90;;;;;;1927687;73;21117;-74
2023/07/10 00:49:16;;;;;;;6.90;4.53;;;26.50;99.90;;;;;;1926604;73;21569;-74
2023/07/10 00:52:11;;;;;;;7.50;4.85;;;26.60;99.90;;;;;;1923105;73;21111;-74
2023/07/10 00:55:04;;;;;;;7.53;4.50;;;26.60;99.90;;;;;;1929081;73;21782;-74
2023/07/10 00:58:00;;;;;;;8.53;4.12;;;26.60;99.90;;;;;;1922841;73;21573;-74
2023/07/10 01:03:49;;;;;;;7.40;4.45;;;26.50;99.90;;;;;;1953442;72;22149;-74
2023/07/10 01:09:24;;;;;;;8.30;4.28;;;26.40;99.90;;;;;;1942787;72;22250;-74
2023/07/10 01:12:15;;;;;;;8.55;4.37;;;26.40;99.90;;;;;;1939053;73;21114;-75
2023/07/10 01:15:08;;;;;;;7.10;3.98;;;26.20;99.90;;;;;;1916326;75;21126;-74
2023/07/10 01:18:00;;;;;;;7.28;4.08;;;25.90;99.90;;;;;;1930498;73;21047;-75
2023/07/10 01:20:52;;;;;;;9.68;4.12;;;25.90;99.90;;;;;;1916506;73;21553;-75
2023/07/10 01:23:43;;;;;;;7.17;4.33;;;25.80;99.90;;;;;;1926943;73;21134;-75
2023/07/10 01:26:37;;;;;;;7.78;4.25;;;25.80;99.90;;;;;;1931198;73;21518;-75
2023/07/10 01:32:12;;;;;;;6.80;3.87;;;25.60;99.90;;;;;;1940903;72;22275;-74
2023/07/10 01:35:06;;;;;;;8.70;4.25;;;25.70;99.90;;;;;;1883742;76;21151;-74
2023/07/10 01:37:58;;;;;;;7.42;3.90;;;25.70;99.90;;;;;;1892957;75;21143;-74
2023/07/10 01:40:52;;;;;;;9.78;3.92;;;25.70;99.90;;;;;;1895904;75;21376;-75
2023/07/10 01:43:43;;;;;;;5.92;3.90;;;25.70;99.90;;;;;;1901886;75;21102;-74
2023/07/10 01:49:13;;;;;;;7.58;4.20;;;25.70;99.90;;;;;;1934936;72;22216;-74
2023/07/10 01:52:08;;;;;;;9.13;4.37;;;25.70;99.90;;;;;;1899600;73;21168;-74
2023/07/10 01:55:00;;;;;;;5.87;3.98;;;25.60;99.90;;;;;;1916882;73;21160;-74
2023/07/10 01:57:52;;;;;;;7.58;3.90;;;25.60;99.90;;;;;;1901206;74;21086;-74
2023/07/10 02:03:24;;;;;;;9.15;4.62;;;25.50;99.90;;;;;;1936066;72;22326;-74
2023/07/10 02:06:16;;;;;;;8.23;4.50;;;25.50;99.90;;;;;;1878390;75;21101;-74
2023/07/10 02:09:07;;;;;;;9.75;4.17;;;25.40;99.90;;;;;;1901891;75;21109;-74
2023/07/10 02:11:59;;;;;;;6.25;3.62;;;25.40;99.90;;;;;;1894703;75;21233;-74
2023/07/10 02:14:50;;;;;;;8.90;4.35;;;25.40;99.90;;;;;;1885926;75;21167;-74
2023/07/10 02:17:42;;;;;;;7.40;4.42;;;25.30;99.90;;;;;;1891825;75;21142;-74
2023/07/10 02:20:33;;;;;;;7.08;4.00;;;25.40;99.90;;;;;;1896688;75;21552;-74
2023/07/10 02:23:25;;;;;;;6.83;4.40;;;25.50;99.90;;;;;;1902310;75;21593;-74
2023/07/10 02:28:57;;;;;;;6.62;3.87;;;25.50;99.90;;;;;;1932806;72;22198;-74
2023/07/10 02:31:51;;;;;;;9.98;4.58;;;25.50;99.90;;;;;;1909100;74;21642;-74
2023/07/10 02:34:43;;;;;;;6.08;3.72;;;25.50;99.90;;;;;;1915267;75;21099;-74
2023/07/10 02:37:34;;;;;;;10.63;4.50;;;25.50;99.90;;;;;;1910523;75;21647;-74
2023/07/10 02:40:26;;;;;;;10.53;4.12;;;25.40;99.90;;;;;;1916284;74;21643;-74
2023/07/10 02:43:17;;;;;;;8.10;4.50;;;25.40;99.90;;;;;;1916330;74;21093;-74
2023/07/10 02:48:47;;;;;;;8.23;4.37;;;25.20;99.90;;;;;;1963354;72;22283;-74
2023/07/10 02:54:20;;;;;;;8.73;4.30;;;25.20;99.90;;;;;;1938772;72;22228;-74
2023/07/10 02:59:50;;;;;;;9.60;4.05;;;25.10;99.90;;;;;;1944094;72;22318;-74
2023/07/10 03:02:43;;;;;;;9.08;3.90;;;25.10;99.90;;;;;;1929713;73;21114;-75
2023/07/10 03:05:34;;;;;;;6.30;3.90;;;25.10;99.90;;;;;;1916342;75;21090;-75
2023/07/10 03:11:06;;;;;;;6.95;4.45;;;25.10;99.90;;;;;;1928770;72;22308;-75
2023/07/10 03:14:01;;;;;;;6.87;3.92;;;25.10;99.90;;;;;;1906169;75;21192;-74
2023/07/10 03:19:31;;;;;;;8.05;4.53;;;25.00;99.90;;;;;;1930332;72;22177;-75
2023/07/10 03:22:23;;;;;;;7.53;4.40;;;25.00;99.90;;;;;;1897696;75;21105;-75
2023/07/10 03:25:14;;;;;;;8.23;4.50;;;25.00;99.90;;;;;;1885427;75;21108;-74
2023/07/10 03:30:44;;;;;;;8.23;4.70;;;25.10;99.90;;;;;;1944404;72;22209;-74
2023/07/10 03:33:36;;;;;;;7.45;4.70;;;25.10;99.90;;;;;;1918840;73;21537;-74
2023/07/10 03:36:28;;;;;;;6.00;4.08;;;25.10;99.90;;;;;;1919591;73;21163;-75
2023/07/10 03:39:19;;;;;;;6.72;3.98;;;25.20;99.90;;;;;;1947710;73;21102;-74
2023/07/10 03:42:12;;;;;;;7.30;4.40;;;25.20;99.90;;;;;;1926636;73;21079;-75
2023/07/10 03:47:41;;;;;;;9.43;4.90;;;25.10;99.90;;;;;;1931598;72;22686;-74
2023/07/10 03:50:35;;;;;;;9.43;4.53;;;25.00;99.90;;;;;;1905587;73;21106;-74
2023/07/10 03:53:28;;;;;;;6.62;4.28;;;24.90;99.90;;;;;;1900293;75;21082;-74
2023/07/10 03:56:20;;;;;;;7.10;4.10;;;24.90;99.90;;;;;;1898004;75;21133;-74
2023/07/10 03:59:11;;;;;;;8.18;4.17;;;24.70;99.90;;;;;;1907286;75;21634;-74
2023/07/10 04:04:43;;;;;;;6.50;4.08;;;24.70;99.90;;;;;;1929324;72;22142;-74
2023/07/10 04:07:34;;;;;;;5.20;4.10;;;24.70;99.90;;;;;;1910865;73;21175;-74
2023/07/10 04:10:26;;;;;;;10.08;4.25;;;24.60;99.90;;;;;;1918047;74;21160;-75
2023/07/10 04:13:17;;;;;;;8.73;4.50;;;24.60;99.90;;;;;;1914518;73;21153;-74
2023/07/10 04:16:12;;;;;;;7.83;4.75;;;24.50;99.90;;;;;;1908194;75;21185;-74
2023/07/10 04:19:04;;;;;;;8.60;4.30;;;24.50;99.90;;;;;;1845920;77;21187;-74
2023/07/10 04:21:55;;;;;;;5.42;3.98;;;24.50;99.90;;;;;;1917014;73;21117;-75
2023/07/10 04:24:47;;;;;;;6.35;4.03;;;24.40;99.90;;;;;;1918065;74;21103;-74
2023/07/10 04:30:18;;;;;;;8.53;4.42;;;24.30;99.90;;;;;;1918154;72;22212;-74
2023/07/10 04:33:11;;;;;;;7.10;4.03;;;24.30;99.90;;;;;;1910283;73;21251;-75
2023/07/10 04:36:01;;;;;;;7.25;4.40;;;24.30;99.90;;;;;;1859029;75;21585;-74
2023/07/10 04:38:53;;;;;;;7.28;4.20;;;24.30;99.90;;;;;;1847881;76;21158;-74
2023/07/10 04:41:45;;;;;;;7.35;4.45;;;24.40;99.90;;;;;;1900389;75;21107;-74
2023/07/10 04:44:36;;;;;;;10.05;4.75;;;24.40;99.90;;;;;;1900009;75;21102;-74
2023/07/10 04:50:10;;;;;;;8.55;4.65;;;24.50;99.90;;;;;;1931170;72;22212;-74
2023/07/10 04:53:01;;;;;;;8.18;4.90;;;24.40;99.90;;;;;;1914188;74;21155;-81
2023/07/10 04:55:53;;;;;;;11.35;4.60;;;24.40;99.90;;;;;;1906681;74;21110;-81
2023/07/10 04:58:51;;;;;;;9.28;5.00;;;24.40;99.90;;;;;;1905636;75;21267;-80
2023/07/10 05:04:26;;;;;;;8.85;4.62;;;24.50;99.90;;;;;;1926122;72;22198;-80
2023/07/10 05:07:18;;;;;;;8.30;4.90;;;24.50;99.90;;;;;;1903061;75;21075;-80
2023/07/10 05:10:10;;;;;;;9.13;5.10;;;24.60;99.90;;;;;;1902465;75;21193;-80
2023/07/10 05:15:42;;;;;;;14.30;5.08;;;24.60;99.90;;;;;;1930376;72;22192;-80
2023/07/10 05:21:12;;;;;;;8.60;4.85;;;24.70;99.90;;;;;;1935510;72;22300;-80
2023/07/10 05:24:03;;;;;;;10.53;4.90;;;24.70;99.90;;;;;;1903237;75;21106;-80
2023/07/10 05:26:55;;;;;;;9.83;4.90;;;24.80;99.90;;;;;;1904669;75;21164;-80
2023/07/10 05:29:46;;;;;;;12.53;4.72;;;24.90;99.90;;;;;;1911278;75;21151;-80
2023/07/10 05:32:38;;;;;;;11.18;4.95;;;24.90;99.90;;;;;;1892783;75;21107;-80
2023/07/10 05:35:29;;;;;;;10.03;5.37;;;25.00;99.90;;;;;;1896179;75;21130;-80
2023/07/10 05:38:22;;;;;;;12.50;5.25;;;24.90;99.90;;;;;;1905429;75;21517;-79
2023/07/10 05:41:13;;;;;;;9.35;5.58;;;24.90;99.90;;;;;;1909931;75;21102;-79
2023/07/10 05:44:06;;;;;;;11.53;4.97;;;25.00;99.90;;;;;;1887238;75;21535;-80
2023/07/10 05:46:57;;;;;;;8.65;4.83;;;25.00;99.90;;;;;;1903771;75;21147;-80
2023/07/10 05:52:29;;;;;;;7.58;4.83;;;25.30;99.90;;;;;;1947059;72;22180;-81
2023/07/10 05:55:22;;;;;;;15.23;5.40;;;25.30;99.90;;;;;;1932252;73;21171;-80
2023/07/10 05:58:13;;;;;;;8.80;5.25;;;25.40;99.90;;;;;;1932428;73;21569;-80
2023/07/10 06:03:45;;;;;;;8.03;5.12;;;25.40;99.90;;;;;;1932109;72;22313;-80
2023/07/10 06:06:36;;;;;;;6.67;4.60;;;25.50;99.90;;;;;;1882341;75;21152;-79
2023/07/10 06:09:28;;;;;;;11.10;5.15;;;25.60;99.90;;;;;;1897930;75;21290;-79
2023/07/10 06:12:20;;;;;;;8.88;4.62;;;25.60;99.90;;;;;;1889911;75;21121;-79
2023/07/10 06:15:12;;;;;;;10.15;4.97;;;25.70;99.90;;;;;;1871567;75;21110;-79
2023/07/10 06:18:05;;;;;;;9.23;5.30;;;25.60;99.90;;;;;;1896783;75;21102;-79
2023/07/10 06:23:39;;;;;;;7.28;4.70;;;25.50;99.90;;;;;;1944661;72;22261;-79
2023/07/10 06:29:14;;;;;;;8.60;4.97;;;25.50;99.90;;;;;;1948287;72;22182;-79
2023/07/10 06:34:48;;;;;;;7.80;5.15;;;25.50;99.90;;;;;;1939615;72;22266;-79
2023/07/10 06:37:39;;;;;;;8.43;5.00;;;25.50;99.90;;;;;;1905967;74;21159;-80
2023/07/10 06:40:31;;;;;;;8.55;5.12;;;25.50;99.90;;;;;;1898195;74;21134;-86
2023/07/10 06:48:51;;;;;;;6.40;4.90;;;25.50;99.90;;;;;;1942654;72;22114;-86
2023/07/10 06:51:43;;;;;;;11.55;5.10;;;25.60;99.90;;;;;;1925136;73;21774;-86
2023/07/10 06:54:35;;;;;;;8.75;5.20;;;25.50;99.90;;;;;;1929532;73;21110;-86
2023/07/10 07:00:09;;;;;;;10.25;5.12;;;25.50;99.90;;;;;;1952747;72;22212;-86
2023/07/10 07:03:00;;;;;;;8.08;4.83;;;25.50;99.90;;;;;;1908606;75;21091;-86
2023/07/10 07:05:53;;;;;;;10.68;5.15;;;25.50;99.90;;;;;;1898697;75;21740;-87
2023/07/10 07:08:47;;;;;;;10.60;5.40;;;25.60;99.90;;;;;;1904915;75;21067;-86
2023/07/10 07:14:48;;;;;;;10.50;5.28;;;25.90;99.90;;;;;;1965307;71;22292;-88
2023/07/10 07:20:20;;;;;;;8.20;5.17;;;26.00;99.90;;;;;;1929197;72;22213;-86
2023/07/10 07:23:11;;;;;;;8.50;4.85;;;26.10;99.90;;;;;;1886896;75;21177;-87
2023/07/10 07:28:47;;;;;;;7.83;4.83;;;26.30;99.90;;;;;;1951013;72;22281;-86
2023/07/10 07:31:41;;;;;;;6.08;4.45;;;26.40;99.90;;;;;;1927955;73;21181;-85
2023/07/10 07:34:33;;;;;;;11.00;5.03;;;26.50;99.90;;;;;;1916633;73;21128;-86
2023/07/10 07:37:25;;;;;;;7.83;4.80;;;26.50;99.90;;;;;;1916536;75;21113;-85
2023/07/10 07:43:08;;;;;;;9.40;4.55;;;26.60;99.90;;;;;;1947554;72;22235;-86
2023/07/10 07:46:00;;;;;;;9.15;4.50;;;26.80;99.90;;;;;;1929254;73;21086;-85
2023/07/10 07:48:52;;;;;;;8.20;4.72;;;26.90;99.90;;;;;;1926412;73;21124;-86
2023/07/10 07:54:30;;;;;;;6.15;4.40;;;27.00;99.90;;;;;;1926732;72;22648;-86
2023/07/10 07:57:23;;;;;;;7.58;4.90;;;27.00;99.90;;;;;;1930063;73;21102;-86
2023/07/10 08:00:28;;;;;;;7.53;4.53;;;27.10;99.90;;;;;;1922098;73;21102;-85
2023/07/10 08:08:52;;;;;;;7.45;5.25;;;27.50;99.90;;;;;;1943227;72;22305;-85
2023/07/10 08:14:23;;;;;;;7.72;4.45;;;27.50;99.90;;;;;;1930405;72;22134;-86
2023/07/10 08:17:18;;;;;;;8.55;4.87;;;27.50;99.90;;;;;;1879915;75;21333;-86
2023/07/10 08:20:11;;;;;;;9.23;5.30;;;27.60;99.90;;;;;;1876212;75;21152;-86
2023/07/10 08:25:41;;;;;;;7.37;4.78;;;27.70;99.90;;;;;;1925739;72;22246;-86
2023/07/10 08:28:34;;;;;;;8.00;5.08;;;27.70;99.90;;;;;;1918220;73;21102;-86
2023/07/10 08:35:10;;;;;;;11.15;4.90;;;27.90;99.90;;;;;;1891212;73;21063;-86
2023/07/10 08:38:01;;;;;;;8.93;4.72;;;27.90;99.90;;;;;;1903459;74;21107;-86
2023/07/10 08:40:56;;;;;;;6.37;4.90;;;27.90;99.90;;;;;;1893797;74;21092;-87
2023/07/10 08:43:49;;;;;;;8.15;5.00;;;28.10;99.90;;;;;;1885316;73;21180;-86
2023/07/10 08:49:23;;;;;;;7.50;4.80;;;28.10;99.90;;;;;;1946755;72;22244;-86
2023/07/10 08:52:18;;;;;;;6.78;4.67;;;28.20;99.90;;;;;;1911319;74;21194;-85
2023/07/10 08:55:14;;;;;;;10.40;4.75;;;28.30;99.90;;;;;;1904372;75;21376;-86
2023/07/10 09:01:04;;;;;;;7.95;4.87;;;28.50;99.90;;;;;;1951531;72;22289;-87
2023/07/10 09:04:01;;;;;;;6.00;5.17;;;28.50;99.90;;;;;;1904521;74;21593;-88
2023/07/10 09:06:56;;;;;;;8.20;5.22;;;28.50;99.90;;;;;;1910614;74;21229;-86
2023/07/10 09:09:51;;;;;;;5.90;4.83;;;28.50;99.90;;;;;;1904994;74;21160;-87
2023/07/10 09:12:49;;;;;;;7.00;5.20;;;28.60;99.90;;;;;;1920644;74;21110;-86
2023/07/10 09:18:25;;;;;;;7.12;5.30;;;28.60;99.90;;;;;;1940117;72;22817;-86
2023/07/10 09:21:19;;;;;;;8.63;5.22;;;28.80;99.90;;;;;;1887010;75;21126;-86
2023/07/10 09:24:15;;;;;;;5.45;4.85;;;28.70;99.90;;;;;;1885242;75;21097;-86
2023/07/10 09:29:50;;;;;;;9.35;5.47;;;29.00;99.90;;;;;;1943345;72;22220;-86
2023/07/10 09:32:42;;;;;;;9.13;5.53;;;29.10;99.90;;;;;;1920228;73;21184;-86
2023/07/10 09:35:36;;;;;;;8.45;5.92;;;29.10;99.90;;;;;;1916740;75;21168;-86
2023/07/10 09:43:56;;;;;;;7.50;5.30;;;29.30;99.90;;;;;;1942033;72;22236;-85
2023/07/10 09:49:30;;;;;;;9.20;5.60;;;29.30;99.90;;;;;;1932995;72;22231;-88
2023/07/10 09:52:32;;;;;;;7.65;5.25;;;29.40;99.90;;;;;;1872921;75;21091;-85
2023/07/10 09:58:05;;;;;;;8.03;5.58;;;29.60;99.90;;;;;;1953867;72;22949;-86
2023/07/10 10:03:45;;;;;;;7.05;5.00;;;29.70;99.90;;;;;;1936261;72;22177;-86
2023/07/10 10:06:36;;;;;;;8.28;5.35;;;29.80;99.90;;;;;;1894061;75;21140;-86
2023/07/10 10:09:29;;;;;;;7.83;5.28;;;29.70;99.90;;;;;;1890929;75;21091;-86
2023/07/10 10:12:26;;;;;;;10.35;5.83;;;29.60;99.90;;;;;;1887141;75;21071;-87
2023/07/10 10:15:23;;;;;;;10.00;5.53;;;29.70;99.90;;;;;;1879998;73;21139;-87
2023/07/10 10:18:21;;;;;;;10.08;5.60;;;29.90;99.90;;;;;;1893965;75;21075;-87
2023/07/10 10:21:15;;;;;;;9.18;5.45;;;30.00;99.90;;;;;;1875095;75;21203;-87
2023/07/10 10:24:11;;;;;;;7.70;5.45;;;30.10;99.90;;;;;;1904703;75;21095;-87
2023/07/10 10:27:09;;;;;;;7.57;5.40;;;30.20;99.90;;;;;;1888391;75;21139;-86
2023/07/10 10:30:15;;;;;;;7.85;5.10;;;30.20;99.90;;;;;;1884571;75;21138;-87
2023/07/10 10:35:56;;;;;;;6.95;5.22;;;30.50;99.90;;;;;;1943593;72;22193;-87
2023/07/10 10:38:52;;;;;;;12.18;5.22;;;30.60;99.90;;;;;;1895447;75;21115;-87
2023/07/10 10:41:50;;;;;;;8.65;5.22;;;30.70;99.90;;;;;;1891028;75;21091;-87
2023/07/10 10:50:39;;;;;;;7.00;5.03;;;31.00;99.90;;;;;;1960060;72;22141;-87
2023/07/10 10:53:38;;;;;;;6.30;4.92;;;31.00;99.90;;;;;;1925485;73;21175;-86
2023/07/10 10:56:32;;;;;;;12.53;5.30;;;31.00;99.90;;;;;;1927773;73;21147;-86
2023/07/10 10:59:34;;;;;;;10.15;5.60;;;31.10;99.90;;;;;;1927549;73;21125;-86
2023/07/10 11:07:01;;;;;;;7.35;5.00;;;31.20;99.90;;;;;;1989103;71;22484;-86
2023/07/10 11:09:55;;;;;;;8.38;4.72;;;31.30;99.90;;;;;;1947933;73;21081;-85
2023/07/10 11:12:46;;;;;;;8.28;5.62;;;31.40;99.90;;;;;;2034033;70;21147;-85
2023/07/10 11:15:38;;;;;;;11.08;5.30;;;31.40;99.90;;;;;;2033795;70;21634;-86
2023/07/10 11:18:30;;;;;;;9.63;4.85;;;31.40;99.90;;;;;;2034097;70;21111;-85
2023/07/10 11:21:22;;;;;;;7.42;5.05;;;31.60;99.90;;;;;;2051852;69;21142;-85
2023/07/10 11:24:29;;;;;;;10.15;4.95;;;31.60;99.90;;;;;;2055264;69;21517;-85
2023/07/10 11:27:23;;;;;;;9.50;4.97;;;31.70;99.90;;;;;;2048185;70;21501;-85
2023/07/10 11:30:17;;;;;;;6.85;4.78;;;31.80;99.90;;;;;;2033788;70;21077;-85
2023/07/10 11:33:20;;;;;;;8.83;5.45;;;31.90;99.90;;;;;;2011511;71;21086;-85
2023/07/10 11:36:18;;;;;;;8.33;4.50;;;31.90;99.90;;;;;;2031750;70;21664;-84
2023/07/10 11:39:18;;;;;;;7.90;5.42;;;32.00;99.90;;;;;;2034747;69;21112;-86
2023/07/10 11:42:19;;;;;;;9.38;4.97;;;32.10;99.90;;;;;;2044823;69;21083;-86
2023/07/10 11:45:14;;;;;;;9.35;5.17;;;32.10;99.90;;;;;;2033181;70;21196;-85
2023/07/10 11:48:30;;;;;;;7.00;4.85;;;32.10;99.90;;;;;;2047019;69;21051;-86
2023/07/10 11:51:29;;;;;;;9.55;5.05;;;32.20;99.90;;;;;;2033061;70;21099;-86
2023/07/10 11:55:01;;;;;;;11.73;5.53;;;32.30;99.90;;;;;;2032897;70;21629;-86
2023/07/10 11:58:23;;;;;;;9.38;5.65;;;32.40;99.90;;;;;;2033090;70;21574;-85
2023/07/10 12:01:21;;;;;;;8.05;5.17;;;32.70;99.90;;;;;;2032902;70;21558;-86
2023/07/10 12:04:18;;;;;;;10.00;5.72;;;32.80;99.90;;;;;;2032857;70;21083;-86
2023/07/10 12:07:13;;;;;;;11.97;5.80;;;32.80;99.90;;;;;;2032991;70;21051;-86
2023/07/10 12:10:11;;;;;;;11.28;5.03;;;32.90;99.90;;;;;;2034652;70;21070;-86
2023/07/10 12:13:12;;;;;;;9.50;5.55;;;32.90;99.90;;;;;;2057155;69;21155;-86
2023/07/10 12:16:15;;;;;;;17.55;5.45;;;32.80;99.90;;;;;;1990529;72;21439;-85
2023/07/10 12:19:15;;;;;;;9.40;5.42;;;32.80;99.90;;;;;;2031005;70;21199;-85
2023/07/10 12:22:19;;;;;;;10.82;5.78;;;32.90;99.90;;;;;;2032391;70;21553;-85
2023/07/10 12:25:14;;;;;;;7.85;5.03;;;32.90;99.90;;;;;;2032063;70;21082;-87
2023/07/10 12:28:12;;;;;;;8.13;5.33;;;32.80;99.90;;;;;;2031964;70;21066;-86
2023/07/10 12:31:09;;;;;;;8.93;5.33;;;32.80;99.90;;;;;;2031851;70;21097;-87
2023/07/10 12:34:02;;;;;;;5.95;4.90;;;32.90;99.90;;;;;;2032083;70;21622;-87
2023/07/10 12:36:55;;;;;;;11.78;5.40;;;33.10;99.90;;;;;;2032605;70;21140;-85
2023/07/10 12:39:49;;;;;;;7.42;4.83;;;33.20;99.90;;;;;;2031979;70;21203;-85
2023/07/10 12:42:42;;;;;;;7.90;5.28;;;33.30;99.90;;;;;;2039852;69;21106;-85
2023/07/10 12:45:35;;;;;;;9.98;4.62;;;33.20;99.90;;;;;;2033400;70;21096;-85
2023/07/10 12:48:29;;;;;;;10.63;5.42;;;33.10;99.90;;;;;;2032940;70;21136;-86
2023/07/10 12:51:25;;;;;;;10.10;5.30;;;33.30;99.90;;;;;;2032725;70;21113;-86
2023/07/10 12:54:20;;;;;;;8.73;4.83;;;33.30;99.90;;;;;;2032784;70;21146;-86
2023/07/10 12:57:15;;;;;;;11.50;5.45;;;33.30;99.90;;;;;;2032919;70;21092;-86
2023/07/10 13:00:10;;;;;;;8.43;4.97;;;33.40;99.90;;;;;;2055968;69;21070;-86
2023/07/10 13:03:01;;;;;;;12.43;4.67;;;33.50;99.90;;;;;;2030971;70;21078;-86
2023/07/10 13:05:59;;;;;;;11.93;4.87;;;33.70;99.90;;;;;;2030545;70;21081;-85
2023/07/10 13:08:51;;;;;;;11.97;4.83;;;33.70;99.90;;;;;;2030667;70;21143;-87
2023/07/10 13:11:44;;;;;;;9.13;5.17;;;33.70;99.90;;;;;;2056509;69;21147;-85
2023/07/10 13:14:37;;;;;;;10.75;4.87;;;33.70;99.90;;;;;;2030954;69;21082;-85
2023/07/10 13:17:30;;;;;;;9.88;5.00;;;33.90;99.90;;;;;;2030803;70;21096;-85
2023/07/10 13:20:23;;;;;;;13.08;4.87;;;34.00;99.90;;;;;;2044740;69;21062;-86
2023/07/10 13:23:15;;;;;;;8.98;4.62;;;33.90;99.90;;;;;;2043236;69;21030;-86
2023/07/10 13:26:20;;;;;;;11.25;5.30;;;33.70;99.90;;;;;;2041023;69;21088;-86
2023/07/10 13:29:23;;;;;;;9.68;5.00;;;33.70;99.90;;;;;;2030667;70;21106;-86
2023/07/10 13:32:16;;;;;;;12.23;5.05;;;33.80;99.90;;;;;;2033154;70;21169;-85
2023/07/10 13:35:10;;;;;;;7.53;4.50;;;33.90;99.90;;;;;;2030774;70;21078;-86
2023/07/10 13:38:04;;;;;;;13.08;4.80;;;33.90;99.90;;;;;;2033883;70;21151;-88
2023/07/10 13:41:02;;;;;;;10.10;4.62;;;33.90;99.90;;;;;;2033348;70;21094;-85
2023/07/10 13:44:10;;;;;;;12.90;4.53;;;34.00;99.90;;;;;;2031578;70;21538;-84
2023/07/10 13:47:02;;;;;;;10.85;4.90;;;34.10;99.90;;;;;;2031736;70;21683;-86
2023/07/10 13:49:56;;;;;;;9.73;4.72;;;34.20;99.90;;;;;;2030141;70;21078;-85
2023/07/10 13:52:47;;;;;;;7.37;4.40;;;34.40;99.90;;;;;;2031871;70;21070;-85
2023/07/10 13:55:39;;;;;;;9.55;4.42;;;34.50;99.90;;;;;;2038474;69;21112;-85
2023/07/10 13:58:33;;;;;;;9.48;4.58;;;34.50;99.90;;;;;;2042858;69;21122;-86
2023/07/10 14:01:25;;;;;;;11.03;4.55;;;34.80;99.90;;;;;;2068817;69;21475;-87
2023/07/10 14:04:23;;;;;;;15.65;4.90;;;35.00;99.90;;;;;;2030573;69;21192;-85
2023/07/10 14:07:19;;;;;;;10.30;5.05;;;35.20;99.90;;;;;;2034373;70;21094;-87
2023/07/10 14:10:15;;;;;;;8.85;4.83;;;35.40;99.90;;;;;;2041857;70;21158;-87
2023/07/10 14:16:15;;;;;;;10.15;4.50;;;35.50;99.90;;;;;;1958135;72;22190;-84
2023/07/10 14:19:11;;;;;;;12.85;4.85;;;35.60;99.90;;;;;;1904266;75;21111;-85
2023/07/10 14:22:03;;;;;;;10.87;4.63;;;35.90;99.90;;;;;;1917819;74;21111;-86
2023/07/10 14:24:54;;;;;;;7.30;4.72;;;35.80;99.90;;;;;;1908374;74;21125;-86
2023/07/10 14:27:46;;;;;;;9.15;4.75;;;35.90;99.90;;;;;;1906805;74;21200;-84
2023/07/10 14:30:37;;;;;;;10.28;4.03;;;36.00;99.90;;;;;;1882224;75;21191;-87
2023/07/10 14:33:30;;;;;;;8.63;4.45;;;36.10;99.90;;;;;;1904977;75;21180;-85
2023/07/10 14:36:25;;;;;;;13.32;4.53;;;36.20;99.90;;;;;;1914026;74;21107;-85
2023/07/10 14:39:17;;;;;;;10.72;4.65;;;36.20;98.60;;;;;;1915683;74;21721;-85
2023/07/10 14:42:13;;;;;;;8.53;4.25;;;36.30;98.00;;;;;;1916293;74;21172;-86
2023/07/10 14:45:06;;;;;;;9.70;5.13;;;36.40;98.20;;;;;;1905040;75;21211;-85
2023/07/10 14:47:59;;;;;;;11.35;4.85;;;36.40;98.70;;;;;;1904700;75;21796;-85
2023/07/10 14:50:51;;;;;;;6.60;3.72;;;36.60;98.10;;;;;;1904525;75;21106;-86
2023/07/10 14:53:43;;;;;;;9.60;4.20;;;37.00;95.80;;;;;;1904816;75;21094;-87
2023/07/10 14:56:34;;;;;;;9.93;4.78;;;36.90;96.30;;;;;;1904810;75;21067;-86
2023/07/10 14:59:26;;;;;;;7.78;3.67;;;37.20;96.50;;;;;;1904892;75;21116;-86
2023/07/10 15:02:22;;;;;;;12.20;4.12;;;37.50;94.40;;;;;;1869199;77;21205;-83
2023/07/10 15:05:15;;;;;;;7.67;4.33;;;37.50;93.70;;;;;;1907781;74;21161;-86
2023/07/10 15:08:08;;;;;;;8.50;4.30;;;37.60;92.90;;;;;;1904664;75;21095;-85
2023/07/10 15:11:00;;;;;;;10.35;4.20;;;37.70;92.00;;;;;;1868493;77;21072;-86
2023/07/10 15:13:52;;;;;;;10.32;4.15;;;37.90;92.50;;;;;;1904352;75;21168;-85
2023/07/10 15:16:44;;;;;;;11.25;4.30;;;38.00;91.60;;;;;;1910066;75;21187;-86
2023/07/10 15:19:37;;;;;;;10.98;3.98;;;38.20;91.30;;;;;;1913161;75;21130;-86
2023/07/10 15:22:33;;;;;;;8.88;4.17;;;38.10;91.90;;;;;;1908188;75;21177;-85
2023/07/10 15:25:28;;;;;;;9.85;4.08;;;38.50;91.20;;;;;;1907884;75;21089;-87
2023/07/10 15:28:23;;;;;;;12.15;4.58;;;38.50;91.60;;;;;;1907275;75;21128;-85
2023/07/10 15:31:16;;;;;;;8.10;4.30;;;38.50;92.70;;;;;;1908534;75;21162;-86
2023/07/10 15:34:13;;;;;;;7.42;4.28;;;38.70;91.40;;;;;;1912737;74;21558;-85
2023/07/10 15:37:03;;;;;;;;;;;38.80;92.00;;;;;;1935070;74;21223;-87
2023/07/10 15:39:55;;;;;;;8.38;4.20;;;38.50;92.50;;;;;;1912675;75;20182;-86
2023/07/10 15:42:48;;;;;;;8.20;4.37;;;38.60;91.80;;;;;;1915956;73;21160;-86
2023/07/10 15:45:39;;;;;;;7.20;4.08;;;39.00;91.20;;;;;;1907624;75;21170;-86
2023/07/10 15:48:31;;;;;;;8.90;4.53;;;39.00;91.00;;;;;;1906437;74;21088;-86
2023/07/10 15:51:27;;;;;;;9.33;4.62;;;38.90;91.40;;;;;;1868479;76;21206;-86
2023/07/10 15:54:20;;;;;;;7.85;4.33;;;39.20;90.00;;;;;;1862411;76;21111;-86
2023/07/10 15:57:11;;;;;;;7.25;4.33;;;39.00;90.30;;;;;;1915494;74;21099;-85
2023/07/10 16:00:07;;;;;;;9.68;4.60;;;39.30;90.10;;;;;;1883359;75;21114;-85
2023/07/10 16:02:59;;;;;;;7.35;4.33;;;39.40;90.00;;;;;;1858103;76;21119;-86
2023/07/10 16:05:53;;;;;;;8.13;4.50;;;39.50;89.50;;;;;;1907796;75;21059;-86
2023/07/10 16:08:45;;;;;;;6.22;4.00;;;39.70;88.50;;;;;;1905196;75;21122;-87
2023/07/10 16:11:36;;;;;;;7.85;4.12;;;39.80;87.80;;;;;;1914744;74;21176;-85
2023/07/10 16:14:34;;;;;;;6.35;4.08;;;39.80;87.40;;;;;;1926256;74;21152;-86
2023/07/10 16:17:24;;;;;;;6.70;4.28;;;40.10;87.30;;;;;;1912644;75;21159;-86
2023/07/10 16:20:18;;;;;;;8.03;4.35;;;40.30;87.20;;;;;;1910451;75;21050;-85
2023/07/10 16:23:11;;;;;;;7.87;4.33;;;40.20;86.80;;;;;;1912269;75;21152;-86
2023/07/10 16:26:03;;;;;;;7.15;4.08;;;40.10;86.80;;;;;;1912144;75;21185;-86
2023/07/10 16:28:54;;;;;;;9.33;4.37;;;40.20;86.80;;;;;;1911359;75;21048;-86
2023/07/10 16:31:45;;;;;;;7.35;4.37;;;39.90;87.00;;;;;;1871015;76;21106;-86
2023/07/10 16:34:37;;;;;;;7.40;4.10;;;39.90;87.00;;;;;;1910556;75;21180;-86
2023/07/10 16:37:28;;;;;;;8.93;4.20;;;40.20;86.40;;;;;;1910519;75;21108;-86
2023/07/10 16:40:21;;;;;;;9.75;4.40;;;40.70;85.30;;;;;;1929879;74;21090;-86
2023/07/10 16:43:15;;;;;;;6.87;4.22;;;41.30;83.70;;;;;;1872091;76;21202;-87
2023/07/10 16:46:07;;;;;;;8.13;4.37;;;41.30;82.60;;;;;;1913317;74;21118;-86
2023/07/10 16:48:59;;;;;;;12.95;4.80;;;41.10;82.70;;;;;;1939907;74;21569;-86
2023/07/10 16:51:50;;;;;;;7.25;4.37;;;40.70;83.10;;;;;;1924997;74;21167;-86
2023/07/10 16:54:42;;;;;;;9.40;4.10;;;41.00;81.60;;;;;;1912086;75;21102;-86
2023/07/10 16:57:33;;;;;;;9.38;4.53;;;41.30;81.30;;;;;;1871208;76;21181;-86
2023/07/10 17:00:28;;;;;;;9.98;4.60;;;41.70;80.50;;;;;;1869021;76;21071;-86
2023/07/10 17:03:22;;;;;;;7.22;4.85;;;41.60;80.00;;;;;;1920098;74;21156;-86
2023/07/10 17:06:16;;;;;;;7.10;4.33;;;41.50;79.10;;;;;;1911108;75;21087;-86
2023/07/10 17:09:11;;;;;;;6.37;4.05;;;41.60;78.90;;;;;;1918790;74;21102;-87
2023/07/10 17:12:02;;;;;;;5.92;4.22;;;41.50;78.80;;;;;;1871709;75;21109;-86
2023/07/10 17:14:54;;;;;;;12.80;4.60;;;41.50;78.60;;;;;;1907945;75;21095;-86
2023/07/10 17:17:45;;;;;;;8.50;4.28;;;41.50;78.40;;;;;;1904988;75;21141;-86
2023/07/10 17:20:37;;;;;;;9.43;4.28;;;40.70;78.60;;;;;;1901619;75;21164;-86
2023/07/10 17:23:31;;;;;;;7.40;4.47;;;41.20;78.70;;;;;;1899711;75;21164;-86
2023/07/10 17:26:23;;;;;;;8.35;4.25;;;41.70;77.30;;;;;;1904179;74;21120;-86
2023/07/10 17:29:17;;;;;;;10.48;4.20;;;41.30;77.30;;;;;;1900569;75;21091;-86